Time;durP1;ratioP1;P1;durP2;ratioP2;P2;SDS_P1;SDS_P2;PMS_P1;PMS_P2;Temp;Humidity;BMP_temperature;BMP_pressure;BME280_temperature;BME280_humidity;BME280_pressure;Samples;Min_cycle;Max_cycle;Signal;HPM_P1;HPM_P2
2023/01/10 00:01:55;;;;;;;0.30;0.30;;;;;;;11.28;65.87;101086.72;5012118;28;20044;-72
2023/01/10 00:04:21;;;;;;;0.60;0.60;;;;;;;11.63;65.75;101109.28;5012179;28;20096;-72
2023/01/10 00:06:46;;;;;;;0.40;0.40;;;;;;;11.94;64.84;101101.03;5012694;28;20033;-72
2023/01/10 00:09:11;;;;;;;0.38;0.38;;;;;;;11.45;66.50;101118.19;5007613;28;20395;-72
2023/01/10 00:14:21;;;;;;;0.32;0.32;;;;;;;11.03;68.52;101131.63;5011248;28;20402;-71
2023/01/10 00:16:46;;;;;;;0.40;0.40;;;;;;;11.23;67.42;101135.78;5012089;28;20038;-73
2023/01/10 00:19:11;;;;;;;0.30;0.30;;;;;;;11.46;66.78;101145.88;5018305;28;20165;-73
2023/01/10 00:21:38;;;;;;;0.40;0.40;;;;;;;11.44;66.81;101143.44;5012097;28;20060;-73
2023/01/10 00:24:20;;;;;;;0.40;0.40;;;;;;;10.93;68.49;101150.94;5011554;28;20402;-72
2023/01/10 00:26:49;;;;;;;0.60;0.60;;;;;;;11.39;67.62;101147.84;5011640;28;20137;-73
2023/01/10 00:29:19;;;;;;;0.40;0.40;;;;;;;11.46;66.93;101148.56;5011488;28;20379;-71
2023/01/10 00:31:44;;;;;;;0.68;0.68;;;;;;;11.92;64.32;101151.59;5011590;28;20573;-72
2023/01/10 00:34:10;;;;;;;0.30;0.30;;;;;;;11.02;68.22;101159.56;5011234;28;20120;-71
2023/01/10 00:36:35;;;;;;;0.70;0.55;;;;;;;11.47;66.55;101166.38;5011329;28;20033;-71
2023/01/10 00:39:01;;;;;;;0.30;0.30;;;;;;;11.06;68.18;101172.38;5011266;28;20375;-72
2023/01/10 00:44:10;;;;;;;0.60;0.60;;;;;;;11.33;66.72;101184.53;5011735;28;20072;-73
2023/01/10 00:46:36;;;;;;;0.63;0.63;;;;;;;11.48;66.22;101189.53;5010951;28;20397;-72
2023/01/10 00:49:04;;;;;;;0.50;0.50;;;;;;;11.68;65.27;101189.38;5011596;28;20105;-73
2023/01/10 00:51:29;;;;;;;0.40;0.40;;;;;;;11.50;66.52;101201.75;5011672;28;20026;-73
2023/01/10 00:53:55;;;;;;;0.50;0.50;;;;;;;11.31;66.39;101197.38;5011544;28;20379;-72
2023/01/10 00:56:20;;;;;;;0.50;0.50;;;;;;;11.62;65.73;101203.69;5011622;28;20041;-72
2023/01/10 00:58:45;;;;;;;0.40;0.40;;;;;;;11.01;67.57;101196.41;5011490;28;20038;-72
2023/01/10 01:01:11;;;;;;;0.50;0.50;;;;;;;11.01;67.74;101196.41;5011640;28;20026;-71
2023/01/10 01:03:36;;;;;;;0.40;0.40;;;;;;;11.31;67.61;101201.94;5011520;28;20040;-72
2023/01/10 01:06:05;;;;;;;0.50;0.50;;;;;;;11.43;66.95;101202.84;5011389;28;20129;-72
2023/01/10 01:08:31;;;;;;;0.65;0.65;;;;;;;10.72;68.80;101209.63;5011480;28;20034;-71
2023/01/10 01:10:56;;;;;;;0.60;0.60;;;;;;;11.19;67.33;101206.38;5011324;28;20108;-72
2023/01/10 01:13:22;;;;;;;0.38;0.38;;;;;;;11.11;67.60;101206.66;5011306;28;20048;-72
2023/01/10 01:15:48;;;;;;;0.40;0.40;;;;;;;10.94;68.34;101213.63;5012312;28;20038;-72
2023/01/10 01:18:17;;;;;;;0.50;0.50;;;;;;;11.12;67.33;101219.06;5011190;28;20495;-72
2023/01/10 01:20:44;;;;;;;0.60;0.60;;;;;;;11.00;67.97;101227.03;5011520;28;20185;-73
2023/01/10 01:23:11;;;;;;;0.40;0.40;;;;;;;10.89;67.70;101226.91;5011461;28;20120;-73
2023/01/10 01:25:36;;;;;;;0.40;0.40;;;;;;;10.95;67.91;101226.84;5011552;28;20128;-73
2023/01/10 01:28:02;;;;;;;0.60;0.60;;;;;;;11.20;67.36;101234.94;5014705;28;20134;-72
2023/01/10 01:30:28;;;;;;;0.40;0.40;;;;;;;11.11;67.43;101225.47;5014004;28;20033;-72
2023/01/10 01:32:53;;;;;;;0.43;0.43;;;;;;;11.25;66.28;101232.41;5014419;28;20045;-72
2023/01/10 01:35:18;;;;;;;0.40;0.40;;;;;;;10.82;68.31;101236.88;5014757;28;20034;-73
2023/01/10 01:37:44;;;;;;;0.50;0.50;;;;;;;10.92;68.04;101246.13;5013341;28;20101;-73
2023/01/10 01:40:17;;;;;;;0.40;0.40;;;;;;;11.24;66.99;101247.72;5014987;28;20034;-73
2023/01/10 01:42:44;;;;;;;0.60;0.60;;;;;;;10.95;67.69;101256.41;5015292;28;20513;-72
2023/01/10 01:45:12;;;;;;;0.35;0.35;;;;;;;11.36;67.68;101261.31;5014698;28;20058;-72
2023/01/10 01:47:44;;;;;;;0.50;0.50;;;;;;;11.52;66.04;101280.41;5014469;28;20113;-72
2023/01/10 01:50:18;;;;;;;0.45;0.45;;;;;;;11.58;66.84;101273.28;5014168;28;20529;-73
2023/01/10 01:52:44;;;;;;;0.50;0.50;;;;;;;11.35;66.01;101270.41;5014327;28;20137;-71
2023/01/10 01:55:10;;;;;;;0.30;0.30;;;;;;;11.39;66.38;101279.69;5014766;28;20057;-73
2023/01/10 01:57:36;;;;;;;0.40;0.40;;;;;;;11.71;65.76;101283.16;5014949;28;20498;-73
2023/01/10 02:00:04;;;;;;;0.30;0.30;;;;;;;11.55;65.38;101272.91;5014538;28;20036;-73
2023/01/10 02:02:37;;;;;;;0.47;0.47;;;;;;;11.32;66.91;101287.00;5014081;28;20048;-72
2023/01/10 02:05:07;;;;;;;0.60;0.60;;;;;;;11.10;67.50;101291.91;5013963;28;20149;-72
2023/01/10 02:07:36;;;;;;;0.50;0.50;;;;;;;11.49;66.16;101282.72;5014466;28;20049;-71
2023/01/10 02:10:04;;;;;;;0.35;0.35;;;;;;;11.23;67.49;101289.13;5014106;28;20113;-71
2023/01/10 02:12:31;;;;;;;0.38;0.38;;;;;;;11.31;67.40;101288.84;5015003;28;20100;-72
2023/01/10 02:14:58;;;;;;;0.40;0.40;;;;;;;10.77;69.08;101299.34;5014277;28;20057;-71
2023/01/10 02:17:24;;;;;;;0.40;0.40;;;;;;;10.52;70.38;101295.75;5013970;28;20468;-71
2023/01/10 02:19:56;;;;;;;0.40;0.40;;;;;;;10.94;69.34;101297.81;5012186;28;20186;-72
2023/01/10 02:22:46;;;;;;;0.50;0.50;;;;;;;11.28;69.27;101302.72;5011493;28;20042;-72
2023/01/10 02:25:40;;;;;;;0.40;0.40;;;;;;;11.15;69.76;101302.84;5014244;28;20056;-73
2023/01/10 02:28:39;;;;;;;0.32;0.32;;;;;;;10.49;73.80;101318.53;4997773;28;20073;-73
2023/01/10 02:31:13;;;;;;;0.30;0.30;;;;;;;11.12;71.49;101318.59;4914270;29;20048;-74
2023/01/10 02:34:09;;;;;;;0.30;0.30;;;;;;;11.03;72.24;101307.25;4906755;29;20052;-75
2023/01/10 02:36:44;;;;;;;0.32;0.32;;;;;;;11.64;69.12;101310.09;4914441;29;20078;-74
2023/01/10 02:39:33;;;;;;;0.45;0.40;;;;;;;11.34;69.69;101314.50;4913823;29;20055;-75
2023/01/10 02:42:06;;;;;;;0.30;0.30;;;;;;;11.57;69.31;101320.13;4914425;29;20070;-73
2023/01/10 02:44:40;;;;;;;0.57;0.57;;;;;;;11.68;69.38;101322.13;4914240;29;20524;-73
2023/01/10 02:47:07;;;;;;;0.50;0.50;;;;;;;11.72;68.88;101325.19;4914638;29;20088;-73
2023/01/10 02:49:49;;;;;;;0.50;0.50;;;;;;;12.14;67.72;101325.19;4914272;29;20136;-75
2023/01/10 02:52:26;;;;;;;0.50;0.50;;;;;;;12.21;67.24;101328.63;4914809;29;20052;-72
2023/01/10 02:54:58;;;;;;;0.57;0.57;;;;;;;11.95;68.11;101320.00;4930830;29;20048;-74
2023/01/10 02:57:50;;;;;;;0.30;0.30;;;;;;;12.15;67.96;101326.81;4928916;29;20450;-74
2023/01/10 03:00:24;;;;;;;0.50;0.50;;;;;;;11.78;69.21;101327.00;4933513;28;20043;-74
2023/01/10 03:03:00;;;;;;;0.40;0.40;;;;;;;11.48;69.23;101327.63;4933328;28;20063;-73
2023/01/10 03:05:41;;;;;;;0.50;0.50;;;;;;;11.33;70.43;101335.22;4933289;28;20040;-73
2023/01/10 03:08:29;;;;;;;0.45;0.45;;;;;;;11.73;69.69;101334.91;4953685;28;20038;-73
2023/01/10 03:11:04;;;;;;;0.40;0.40;;;;;;;11.27;72.02;101341.47;4974082;28;20045;-74
2023/01/10 03:13:55;;;;;;;0.45;0.45;;;;;;;11.59;70.62;101350.34;4974081;28;20054;-74
2023/01/10 03:16:25;;;;;;;0.50;0.50;;;;;;;11.74;70.39;101352.72;4974486;28;20563;-73
2023/01/10 03:18:57;;;;;;;0.40;0.40;;;;;;;11.31;71.11;101348.06;4974344;28;20030;-73
2023/01/10 03:21:23;;;;;;;0.57;0.57;;;;;;;11.29;71.51;101342.06;4981436;28;20057;-72
2023/01/10 03:23:53;;;;;;;0.30;0.30;;;;;;;11.91;69.87;101351.94;4993530;28;20101;-74
2023/01/10 03:26:54;;;;;;;0.60;0.60;;;;;;;11.68;70.31;101350.91;4977073;28;20067;-73
2023/01/10 03:29:41;;;;;;;0.40;0.40;;;;;;;12.29;68.86;101352.59;4932537;29;20130;-73
2023/01/10 03:32:09;;;;;;;0.43;0.43;;;;;;;12.75;66.61;101357.44;4932720;29;20047;-73
2023/01/10 03:34:35;;;;;;;0.50;0.50;;;;;;;12.36;67.42;101353.34;4932289;29;20054;-72
2023/01/10 03:37:16;;;;;;;0.50;0.50;;;;;;;12.76;66.89;101360.94;4932632;29;20035;-73
2023/01/10 03:39:52;;;;;;;0.35;0.35;;;;;;;12.47;66.57;101367.13;4932648;29;20526;-72
2023/01/10 03:42:25;;;;;;;0.30;0.30;;;;;;;12.50;66.84;101370.19;4932223;29;20058;-73
2023/01/10 03:44:58;;;;;;;0.65;0.65;;;;;;;12.17;67.60;101369.72;4932375;29;20440;-73
2023/01/10 03:47:23;;;;;;;0.50;0.50;;;;;;;12.06;67.61;101379.38;4932425;29;20055;-73
2023/01/10 03:49:54;;;;;;;0.60;0.60;;;;;;;12.35;67.95;101375.94;4931151;29;20512;-72
2023/01/10 03:52:20;;;;;;;0.40;0.40;;;;;;;12.14;67.59;101386.34;4932623;29;20525;-73
2023/01/10 03:54:46;;;;;;;0.45;0.45;;;;;;;12.19;67.26;101389.16;4933334;29;20039;-74
2023/01/10 03:57:19;;;;;;;0.50;0.50;;;;;;;12.41;67.53;101397.66;4932722;29;20202;-73
2023/01/10 03:59:47;;;;;;;0.50;0.50;;;;;;;11.92;68.55;101394.00;4932428;29;20051;-73
2023/01/10 04:02:13;;;;;;;0.60;0.60;;;;;;;12.38;67.86;101404.34;4932257;29;20055;-73
2023/01/10 04:04:38;;;;;;;0.38;0.38;;;;;;;11.47;69.98;101409.44;4935059;28;20126;-74
2023/01/10 04:07:03;;;;;;;0.40;0.40;;;;;;;11.20;71.39;101417.88;5012319;28;20117;-73
2023/01/10 04:09:29;;;;;;;0.30;0.30;;;;;;;11.26;71.27;101412.44;5012270;28;20034;-74
2023/01/10 04:11:54;;;;;;;0.50;0.50;;;;;;;11.45;70.53;101422.28;5011880;28;20409;-72
2023/01/10 04:14:19;;;;;;;0.50;0.50;;;;;;;11.28;71.51;101421.09;5011788;28;20125;-73
2023/01/10 04:16:45;;;;;;;0.50;0.50;;;;;;;12.14;69.26;101415.97;5011940;28;20517;-74
2023/01/10 04:19:10;;;;;;;0.32;0.32;;;;;;;11.50;70.99;101413.53;5010676;28;20040;-73
2023/01/10 04:21:35;;;;;;;0.40;0.40;;;;;;;11.52;70.34;101418.72;5000843;28;20181;-73
2023/01/10 04:24:01;;;;;;;0.55;0.55;;;;;;;11.84;69.45;101423.06;4992323;28;20039;-73
2023/01/10 04:26:26;;;;;;;0.30;0.30;;;;;;;11.32;71.49;101421.53;4991937;28;20039;-73
2023/01/10 04:28:52;;;;;;;0.50;0.50;;;;;;;11.45;71.25;101429.50;4991864;28;20064;-73
2023/01/10 04:31:17;;;;;;;0.63;0.63;;;;;;;11.82;69.80;101428.66;4992280;28;20042;-74
2023/01/10 04:33:42;;;;;;;0.68;0.68;;;;;;;12.02;69.34;101434.72;4992445;28;20557;-74
2023/01/10 04:36:08;;;;;;;0.60;0.60;;;;;;;11.55;70.85;101429.88;4992199;28;21064;-73
2023/01/10 04:38:33;;;;;;;0.50;0.50;;;;;;;11.56;70.45;101444.16;4992048;28;20038;-73
2023/01/10 04:40:59;;;;;;;0.50;0.50;;;;;;;12.08;68.72;101439.22;4992289;28;20117;-73
2023/01/10 04:43:24;;;;;;;0.60;0.60;;;;;;;11.69;69.63;101444.09;4992504;28;20034;-74
2023/01/10 04:45:50;;;;;;;0.60;0.60;;;;;;;11.52;71.46;101459.09;4992805;28;20038;-74
2023/01/10 04:48:16;;;;;;;0.70;0.70;;;;;;;11.79;70.39;101452.50;4991760;28;20455;-74
2023/01/10 04:50:41;;;;;;;0.40;0.40;;;;;;;11.72;70.53;101460.63;4991861;28;20046;-73
2023/01/10 04:53:06;;;;;;;0.45;0.45;;;;;;;11.26;72.82;101457.38;4974929;28;20495;-74
2023/01/10 04:55:32;;;;;;;0.40;0.40;;;;;;;11.64;71.47;101454.63;4991970;28;20034;-73
2023/01/10 04:57:58;;;;;;;0.70;0.70;;;;;;;11.96;70.44;101450.94;4992107;28;20038;-74
2023/01/10 05:00:23;;;;;;;0.50;0.50;;;;;;;11.73;70.40;101462.28;4992806;28;20039;-73
2023/01/10 05:02:54;;;;;;;0.40;0.40;;;;;;;12.35;69.21;101458.66;4993799;28;20026;-75
2023/01/10 05:05:20;;;;;;;;;;;;;;;11.76;71.22;101471.78;4982160;28;20125;-74
2023/01/10 05:07:46;;;;;;;0.60;0.60;;;;;;;11.71;70.91;101477.84;4995183;28;20097;-73
2023/01/10 05:10:11;;;;;;;0.50;0.50;;;;;;;11.20;72.31;101471.66;4995017;28;20039;-73
2023/01/10 05:12:37;;;;;;;0.52;0.52;;;;;;;11.10;73.69;101480.19;4995808;28;20034;-73
2023/01/10 05:15:03;;;;;;;0.40;0.40;;;;;;;11.37;72.08;101491.66;4995441;28;20429;-72
2023/01/10 05:17:28;;;;;;;0.60;0.60;;;;;;;11.22;73.04;101489.22;5014933;28;20046;-73
2023/01/10 05:19:53;;;;;;;0.40;0.40;;;;;;;10.91;74.84;101493.72;5014761;28;20560;-73
2023/01/10 05:22:19;;;;;;;0.60;0.60;;;;;;;10.97;74.51;101493.66;5015229;28;20045;-71
2023/01/10 05:24:44;;;;;;;0.60;0.60;;;;;;;10.97;75.20;101498.22;5015351;28;20068;-71
2023/01/10 05:27:09;;;;;;;0.50;0.50;;;;;;;11.47;72.44;101498.25;5006556;28;20126;-73
2023/01/10 05:29:35;;;;;;;0.50;0.50;;;;;;;11.33;73.65;101493.13;4995381;28;20310;-72
2023/01/10 05:32:00;;;;;;;0.50;0.50;;;;;;;11.59;71.90;101498.38;4995176;28;20053;-72
2023/01/10 05:34:26;;;;;;;0.60;0.60;;;;;;;11.46;71.40;101501.13;4995162;28;20513;-73
2023/01/10 05:36:51;;;;;;;0.50;0.50;;;;;;;11.95;70.51;101498.56;4994982;28;20081;-72
2023/01/10 05:39:16;;;;;;;0.60;0.52;;;;;;;11.10;73.53;101501.72;4975900;28;20127;-73
2023/01/10 05:41:42;;;;;;;0.40;0.40;;;;;;;11.43;71.54;101501.56;4975822;28;20130;-72
2023/01/10 05:44:07;;;;;;;0.43;0.43;;;;;;;12.03;69.75;101501.00;4975344;28;20038;-73
2023/01/10 05:46:33;;;;;;;0.40;0.40;;;;;;;11.75;70.66;101502.47;4992104;28;20122;-73
2023/01/10 05:48:58;;;;;;;0.45;0.45;;;;;;;11.61;71.03;101498.16;4994432;28;20026;-73
2023/01/10 05:51:24;;;;;;;0.40;0.40;;;;;;;11.71;70.76;101494.00;4995331;28;20210;-73
2023/01/10 05:53:50;;;;;;;0.50;0.50;;;;;;;11.75;70.65;101505.16;4994404;28;20450;-73
2023/01/10 05:56:15;;;;;;;0.40;0.40;;;;;;;11.81;70.99;101512.38;4992877;28;20129;-72
2023/01/10 05:58:41;;;;;;;0.35;0.35;;;;;;;11.61;71.86;101514.31;4993306;28;20046;-72
2023/01/10 06:01:06;;;;;;;0.60;0.60;;;;;;;11.93;70.97;101519.50;4992101;28;20030;-74
2023/01/10 06:03:32;;;;;;;0.50;0.50;;;;;;;11.76;71.01;101522.94;4987794;28;20019;-74
2023/01/10 06:05:57;;;;;;;0.50;0.50;;;;;;;12.00;69.50;101528.41;4983773;28;20038;-72
2023/01/10 06:08:23;;;;;;;0.60;0.60;;;;;;;11.85;70.97;101544.00;4983456;28;20126;-71
2023/01/10 06:10:49;;;;;;;0.47;0.47;;;;;;;11.60;71.56;101544.94;4985292;28;20041;-73
2023/01/10 06:13:14;;;;;;;0.60;0.60;;;;;;;11.55;71.75;101521.38;4972998;28;20542;-71
2023/01/10 06:15:40;;;;;;;0.30;0.30;;;;;;;11.71;70.06;101530.84;4987050;28;20496;-73
2023/01/10 06:18:06;;;;;;;0.50;0.50;;;;;;;11.58;71.36;101542.47;4985188;28;20043;-73
2023/01/10 06:20:31;;;;;;;0.40;0.40;;;;;;;11.48;71.58;101545.63;4988437;28;20026;-73
2023/01/10 06:23:03;;;;;;;0.50;0.50;;;;;;;11.72;70.78;101544.09;5011108;28;20046;-72
2023/01/10 06:25:29;;;;;;;0.50;0.50;;;;;;;11.25;72.33;101553.38;5012652;28;20038;-73
2023/01/10 06:27:55;;;;;;;0.50;0.50;;;;;;;11.33;72.28;101571.97;5013179;28;20062;-73
2023/01/10 06:30:20;;;;;;;0.45;0.45;;;;;;;11.53;71.99;101574.59;5013501;28;20034;-73
2023/01/10 06:32:46;;;;;;;0.40;0.40;;;;;;;11.39;71.73;101576.53;5013097;28;20034;-72
2023/01/10 06:35:11;;;;;;;0.65;0.65;;;;;;;11.42;70.81;101581.47;5013367;28;20038;-72
2023/01/10 06:37:36;;;;;;;0.68;0.68;;;;;;;11.30;71.95;101582.34;5013026;28;20099;-72
2023/01/10 06:40:03;;;;;;;0.50;0.50;;;;;;;11.17;72.72;101579.69;5012780;28;20025;-73
2023/01/10 06:42:28;;;;;;;0.40;0.40;;;;;;;11.20;72.57;101592.72;5011831;28;20470;-72
2023/01/10 06:44:54;;;;;;;0.50;0.50;;;;;;;12.02;68.76;101599.03;4995557;28;20026;-72
2023/01/10 06:47:19;;;;;;;0.30;0.30;;;;;;;11.87;69.78;101595.78;5011990;28;20069;-73
2023/01/10 06:49:47;;;;;;;0.45;0.45;;;;;;;12.27;68.63;101591.81;5012389;28;20044;-74
2023/01/10 06:52:13;;;;;;;0.50;0.50;;;;;;;12.21;68.06;101592.69;5008950;28;20064;-73
2023/01/10 06:54:40;;;;;;;0.40;0.40;;;;;;;12.24;66.91;101596.84;5007547;28;20116;-72
2023/01/10 06:57:06;;;;;;;0.52;0.52;;;;;;;12.21;67.41;101591.84;5004679;28;20506;-74
2023/01/10 06:59:31;;;;;;;0.50;0.50;;;;;;;12.08;67.57;101592.78;5008888;28;20041;-73
2023/01/10 07:01:57;;;;;;;0.50;0.50;;;;;;;12.19;66.83;101594.78;5006344;28;20038;-74
2023/01/10 07:04:22;;;;;;;0.60;0.60;;;;;;;12.36;66.62;101601.28;5003202;28;20133;-74
2023/01/10 07:06:48;;;;;;;0.63;0.63;;;;;;;12.65;65.27;101610.63;5010699;28;20041;-73
2023/01/10 07:09:13;;;;;;;0.52;0.52;;;;;;;12.33;66.21;101620.59;4995458;28;20046;-72
2023/01/10 07:11:39;;;;;;;0.47;0.47;;;;;;;12.53;64.77;101617.75;5012907;28;20133;-73
2023/01/10 07:14:04;;;;;;;0.50;0.50;;;;;;;12.46;64.35;101616.97;5012417;28;20042;-73
2023/01/10 07:16:29;;;;;;;0.40;0.40;;;;;;;12.54;64.82;101622.09;5012215;28;20038;-74
2023/01/10 07:18:55;;;;;;;0.88;0.88;;;;;;;12.06;66.99;101627.19;5012780;28;20608;-72
2023/01/10 07:21:20;;;;;;;0.47;0.47;;;;;;;11.96;67.51;101632.22;5012145;28;20136;-72
2023/01/10 07:23:49;;;;;;;0.50;0.50;;;;;;;12.07;67.89;101636.91;5010616;28;20061;-71
2023/01/10 07:26:17;;;;;;;0.50;0.50;;;;;;;11.73;68.53;101625.69;5011748;28;20093;-74
2023/01/10 07:28:44;;;;;;;0.40;0.40;;;;;;;11.68;69.08;101636.25;5011447;28;20511;-72
2023/01/10 07:31:10;;;;;;;0.50;0.50;;;;;;;11.37;70.28;101648.56;5013036;28;20034;-72
2023/01/10 07:33:35;;;;;;;0.50;0.50;;;;;;;11.46;70.08;101651.84;5013450;28;20041;-72
2023/01/10 07:36:02;;;;;;;0.70;0.50;;;;;;;11.40;70.59;101653.50;4996029;28;20144;-73
2023/01/10 07:38:28;;;;;;;0.68;0.68;;;;;;;11.28;71.29;101659.75;5013300;28;20034;-73
2023/01/10 07:40:53;;;;;;;0.55;0.55;;;;;;;11.52;70.17;101662.59;5012500;28;20066;-73
2023/01/10 07:43:18;;;;;;;0.68;0.68;;;;;;;11.89;69.34;101661.03;5012686;28;20041;-73
2023/01/10 07:45:44;;;;;;;0.63;0.63;;;;;;;11.62;69.91;101669.38;5012985;28;20044;-72
2023/01/10 07:48:09;;;;;;;0.60;0.60;;;;;;;11.93;69.08;101664.97;5011905;28;20034;-73
2023/01/10 07:50:35;;;;;;;0.50;0.50;;;;;;;11.76;69.44;101676.41;5012135;28;20419;-72
2023/01/10 07:53:03;;;;;;;0.40;0.40;;;;;;;11.87;69.34;101681.97;5012295;28;20050;-71
2023/01/10 07:55:29;;;;;;;0.40;0.40;;;;;;;12.31;67.24;101684.69;5012157;28;20445;-71
2023/01/10 07:57:55;;;;;;;0.50;0.50;;;;;;;12.32;67.40;101691.69;5012309;28;20026;-72
2023/01/10 08:00:21;;;;;;;0.40;0.40;;;;;;;12.04;68.58;101691.25;5012836;28;20037;-72
2023/01/10 08:02:47;;;;;;;0.50;0.50;;;;;;;12.08;67.08;101697.84;5012365;28;20133;-74
2023/01/10 08:05:13;;;;;;;0.50;0.50;;;;;;;12.14;68.04;101699.69;4994850;28;20038;-72
2023/01/10 08:07:39;;;;;;;0.50;0.50;;;;;;;12.69;67.08;101702.69;5011939;28;20044;-73
2023/01/10 08:10:05;;;;;;;0.57;0.57;;;;;;;12.67;66.37;101694.81;5012388;28;20040;-73
2023/01/10 08:12:31;;;;;;;0.50;0.50;;;;;;;12.58;66.65;101696.09;5012670;28;20626;-73
2023/01/10 08:14:57;;;;;;;0.60;0.60;;;;;;;12.25;68.10;101707.09;5011888;28;20088;-73
2023/01/10 08:17:22;;;;;;;0.40;0.40;;;;;;;12.76;66.65;101701.59;5012586;28;20026;-73
2023/01/10 08:19:47;;;;;;;0.43;0.43;;;;;;;12.19;68.85;101701.72;5012608;28;20121;-73
2023/01/10 08:22:13;;;;;;;0.60;0.60;;;;;;;12.33;68.07;101700.63;5012046;28;20141;-73
2023/01/10 08:24:38;;;;;;;0.60;0.60;;;;;;;12.29;67.92;101700.22;5012774;28;20025;-72
2023/01/10 08:27:04;;;;;;;0.38;0.38;;;;;;;11.83;68.57;101699.59;5012311;28;20038;-72
2023/01/10 08:29:30;;;;;;;0.60;0.60;;;;;;;12.60;66.91;101702.13;5011893;28;20085;-72
2023/01/10 08:31:56;;;;;;;0.52;0.52;;;;;;;12.38;68.05;101705.38;5011566;28;20042;-72
2023/01/10 08:34:21;;;;;;;0.50;0.50;;;;;;;13.10;66.06;101705.72;5011741;28;20045;-73
2023/01/10 08:36:52;;;;;;;0.50;0.50;;;;;;;13.38;64.67;101708.81;5011538;28;20032;-73
2023/01/10 08:39:19;;;;;;;0.30;0.30;;;;;;;12.40;67.99;101714.91;5011980;28;20042;-74
2023/01/10 08:41:44;;;;;;;0.50;0.50;;;;;;;12.53;67.53;101714.00;5011812;28;20038;-73
2023/01/10 08:44:12;;;;;;;0.50;0.50;;;;;;;12.81;66.68;101722.53;5011882;28;20034;-73
2023/01/10 08:46:37;;;;;;;0.40;0.40;;;;;;;12.78;66.02;101709.47;5011907;28;20044;-73
2023/01/10 08:49:03;;;;;;;0.50;0.50;;;;;;;12.22;68.25;101707.53;4991037;28;20280;-73
2023/01/10 08:51:28;;;;;;;0.60;0.60;;;;;;;12.10;69.25;101711.94;4992665;28;20113;-72
2023/01/10 08:53:54;;;;;;;0.57;0.57;;;;;;;12.65;67.74;101707.69;4992182;28;20034;-73
2023/01/10 08:56:19;;;;;;;0.52;0.52;;;;;;;12.62;67.12;101708.13;4992252;28;20511;-73
2023/01/10 08:58:45;;;;;;;0.50;0.50;;;;;;;12.91;66.44;101714.78;4991803;28;20118;-73
2023/01/10 09:01:11;;;;;;;0.50;0.50;;;;;;;12.82;66.66;101705.28;4992248;28;20062;-72
2023/01/10 09:03:38;;;;;;;0.60;0.60;;;;;;;12.95;66.14;101713.28;4992836;28;20030;-73
2023/01/10 09:06:03;;;;;;;0.65;0.65;;;;;;;12.86;66.09;101711.91;4992073;28;20029;-72
2023/01/10 09:08:29;;;;;;;0.50;0.50;;;;;;;13.55;64.25;101712.56;4993396;28;20038;-73
2023/01/10 09:10:58;;;;;;;0.60;0.60;;;;;;;12.70;67.67;101715.13;5011036;28;20049;-73
2023/01/10 09:13:24;;;;;;;0.57;0.57;;;;;;;12.42;68.86;101712.81;5009515;28;20041;-73
2023/01/10 09:15:50;;;;;;;0.50;0.50;;;;;;;12.40;68.19;101711.38;5011009;28;20513;-73
2023/01/10 09:18:15;;;;;;;0.40;0.40;;;;;;;12.47;68.24;101704.91;5010782;28;20056;-73
2023/01/10 09:20:42;;;;;;;0.70;0.70;;;;;;;12.57;67.08;101709.81;5011042;28;20149;-72
2023/01/10 09:23:10;;;;;;;0.65;0.65;;;;;;;12.89;66.20;101714.16;5011503;28;20033;-73
2023/01/10 09:25:36;;;;;;;0.30;0.30;;;;;;;13.30;64.79;101719.03;5010815;28;20042;-72
2023/01/10 09:28:03;;;;;;;0.50;0.50;;;;;;;12.66;65.97;101717.44;5011802;28;20538;-72
2023/01/10 09:30:29;;;;;;;0.55;0.55;;;;;;;12.48;67.50;101716.53;5012411;28;20280;-73
2023/01/10 09:32:56;;;;;;;0.60;0.60;;;;;;;12.52;68.20;101726.63;5011922;28;20505;-72
2023/01/10 09:35:23;;;;;;;0.52;0.52;;;;;;;11.99;68.39;101717.19;5011166;28;20041;-72
2023/01/10 09:37:48;;;;;;;0.40;0.40;;;;;;;11.99;68.97;101715.28;5011577;28;20040;-72
2023/01/10 09:40:23;;;;;;;0.40;0.40;;;;;;;12.68;67.20;101717.19;5011166;28;20041;-72
2023/01/10 09:43:09;;;;;;;0.50;0.50;;;;;;;13.14;66.31;101715.88;5011742;28;20030;-73
2023/01/10 09:45:50;;;;;;;0.50;0.50;;;;;;;13.28;65.30;101707.66;5011698;28;20046;-71
2023/01/10 09:48:24;;;;;;;0.43;0.43;;;;;;;12.93;66.07;101718.09;5013915;28;20038;-72
2023/01/10 09:51:11;;;;;;;0.68;0.68;;;;;;;12.85;65.53;101716.50;5014683;28;20045;-72
2023/01/10 09:53:41;;;;;;;0.40;0.40;;;;;;;12.80;65.65;101719.00;5014938;28;20502;-73
2023/01/10 09:56:07;;;;;;;0.47;0.47;;;;;;;12.58;66.75;101724.97;4996671;28;20049;-72
2023/01/10 09:58:36;;;;;;;0.50;0.50;;;;;;;13.05;64.38;101719.06;5014339;28;20041;-71
2023/01/10 10:01:22;;;;;;;0.60;0.60;;;;;;;12.38;67.20;101714.28;5014590;28;20026;-72
2023/01/10 10:03:56;;;;;;;0.60;0.60;;;;;;;13.52;64.00;101712.19;5014540;28;20034;-72
2023/01/10 10:06:22;;;;;;;0.50;0.50;;;;;;;12.53;65.63;101719.38;5014368;28;20132;-73
2023/01/10 10:08:49;;;;;;;0.40;0.40;;;;;;;12.91;65.06;101717.47;5014740;28;20034;-73
2023/01/10 10:11:39;;;;;;;0.50;0.50;;;;;;;12.88;64.84;101716.03;5014689;28;20037;-73
2023/01/10 10:14:31;;;;;;;0.50;0.50;;;;;;;12.92;65.15;101713.72;5014663;28;20034;-73
2023/01/10 10:17:45;;;;;;;0.50;0.50;;;;;;;13.63;62.48;101712.28;5014329;28;20096;-72
2023/01/10 10:20:44;;;;;;;0.45;0.45;;;;;;;13.46;63.90;101710.38;4953251;28;20043;-71
2023/01/10 10:23:34;;;;;;;0.43;0.43;;;;;;;12.91;65.00;101712.88;4952890;29;20275;-74
2023/01/10 10:26:33;;;;;;;0.40;0.40;;;;;;;13.50;63.17;101706.19;4950671;29;20054;-73
2023/01/10 10:29:05;;;;;;;0.40;0.40;;;;;;;13.36;63.15;101692.00;4952859;29;20074;-73
2023/01/10 10:31:45;;;;;;;0.57;0.57;;;;;;;14.06;61.17;101693.28;4952975;29;20103;-72
2023/01/10 10:34:26;;;;;;;0.70;0.70;;;;;;;13.81;62.28;101706.06;4952260;29;20043;-72
2023/01/10 10:37:20;;;;;;;0.45;0.45;;;;;;;12.78;65.24;101693.28;4952154;29;20062;-74
2023/01/10 10:39:59;;;;;;;0.50;0.50;;;;;;;13.09;63.38;101694.09;4951216;29;20050;-73
2023/01/10 10:42:30;;;;;;;0.40;0.40;;;;;;;12.65;66.14;101677.19;4952036;29;20074;-72
2023/01/10 10:45:03;;;;;;;0.30;0.30;;;;;;;13.50;63.44;101668.38;4951582;29;20298;-73
2023/01/10 10:47:33;;;;;;;0.50;0.50;;;;;;;13.36;63.72;101673.09;4951534;29;20047;-73
2023/01/10 10:50:28;;;;;;;0.47;0.47;;;;;;;12.73;64.57;101674.25;4948243;29;20039;-74
2023/01/10 10:52:54;;;;;;;0.50;0.50;;;;;;;13.43;62.11;101667.63;4932308;29;20055;-72
2023/01/10 10:55:27;;;;;;;0.40;0.40;;;;;;;13.51;61.93;101670.84;4950855;29;20070;-73
2023/01/10 10:57:52;;;;;;;0.60;0.60;;;;;;;13.72;62.57;101672.31;4952085;28;20028;-72
2023/01/10 11:00:21;;;;;;;0.30;0.30;;;;;;;12.18;65.72;101665.91;4951316;29;20042;-73
2023/01/10 11:03:00;;;;;;;0.30;0.30;;;;;;;12.82;64.98;101667.53;4952755;29;20047;-73
2023/01/10 11:05:35;;;;;;;0.40;0.40;;;;;;;13.42;63.44;101672.22;4952460;29;20046;-74
2023/01/10 11:08:09;;;;;;;0.43;0.43;;;;;;;13.83;61.41;101664.25;4952338;29;20131;-72
2023/01/10 11:10:34;;;;;;;0.40;0.40;;;;;;;13.54;61.95;101656.88;4952430;29;20051;-73
2023/01/10 11:13:04;;;;;;;0.50;0.50;;;;;;;13.84;61.90;101657.78;4952545;28;20027;-73
2023/01/10 11:15:42;;;;;;;0.45;0.45;;;;;;;14.02;60.95;101654.25;4953481;28;20538;-76
2023/01/10 11:18:14;;;;;;;0.60;0.60;;;;;;;13.21;62.95;101649.16;4952523;28;20031;-74
2023/01/10 11:20:48;;;;;;;0.60;0.60;;;;;;;13.81;61.38;101649.31;4951889;28;20086;-72
2023/01/10 11:23:39;;;;;;;0.38;0.38;;;;;;;13.87;61.58;101645.72;4951966;28;20039;-73
2023/01/10 11:26:22;;;;;;;0.40;0.40;;;;;;;12.99;64.19;101638.97;4929169;29;20047;-73
2023/01/10 11:28:47;;;;;;;0.50;0.50;;;;;;;13.64;61.94;101640.19;4931958;28;20039;-74
2023/01/10 11:31:13;;;;;;;0.40;0.40;;;;;;;13.88;61.39;101640.09;4941989;28;20080;-73
2023/01/10 11:33:40;;;;;;;0.50;0.50;;;;;;;13.51;62.51;101645.72;4942726;29;20480;-72
2023/01/10 11:36:11;;;;;;;0.40;0.40;;;;;;;13.11;62.38;101638.03;4943937;28;20054;-73
2023/01/10 11:38:37;;;;;;;0.30;0.30;;;;;;;13.59;61.89;101640.03;4941430;28;20043;-73
2023/01/10 11:41:06;;;;;;;0.40;0.40;;;;;;;13.78;61.62;101639.78;4945802;28;20503;-74